sensor_id;sensor_type;location;lat;lon;timestamp;pressure;altitude;pressure_sealevel;temperature;humidity
22550;BME280;11441;57.164;-2.120;2023-02-13T00:01:05;102655.72;;;6.37;100.00
22550;BME280;11441;57.164;-2.120;2023-02-13T00:03:32;102668.88;;;6.35;100.00
22550;BME280;11441;57.164;-2.120;2023-02-13T00:05:59;102670.53;;;6.31;100.00
22550;BME280;11441;57.164;-2.120;2023-02-13T00:08:27;102666.16;;;6.30;100.00
22550;BME280;11441;57.164;-2.120;2023-02-13T00:10:54;102666.13;;;6.40;100.00
22550;BME280;11441;57.164;-2.120;2023-02-13T00:13:21;102665.59;;;6.33;100.00
22550;BME280;11441;57.164;-2.120;2023-02-13T00:15:58;102653.53;;;6.39;100.00
22550;BME280;11441;57.164;-2.120;2023-02-13T00:18:26;102662.31;;;6.41;100.00
22550;BME280;11441;57.164;-2.120;2023-02-13T00:21:05;102649.44;;;6.36;100.00
22550;BME280;11441;57.164;-2.120;2023-02-13T00:23:34;102662.22;;;6.51;100.00
22550;BME280;11441;57.164;-2.120;2023-02-13T00:26:05;102657.63;;;6.41;100.00
22550;BME280;11441;57.164;-2.120;2023-02-13T00:28:32;102660.13;;;6.38;100.00
22550;BME280;11441;57.164;-2.120;2023-02-13T00:31:28;102665.06;;;6.31;100.00
22550;BME280;11441;57.164;-2.120;2023-02-13T00:33:55;102657.38;;;6.38;100.00
22550;BME280;11441;57.164;-2.120;2023-02-13T00:36:22;102671.84;;;6.44;100.00
22550;BME280;11441;57.164;-2.120;2023-02-13T00:38:50;102655.94;;;6.56;100.00
22550;BME280;11441;57.164;-2.120;2023-02-13T00:41:19;102652.63;;;6.59;100.00
22550;BME280;11441;57.164;-2.120;2023-02-13T00:43:47;102658.16;;;6.44;100.00
22550;BME280;11441;57.164;-2.120;2023-02-13T00:46:31;102656.84;;;6.31;100.00
22550;BME280;11441;57.164;-2.120;2023-02-13T00:48:58;102661.19;;;6.37;100.00
22550;BME280;11441;57.164;-2.120;2023-02-13T00:51:25;102660.13;;;6.33;100.00
22550;BME280;11441;57.164;-2.120;2023-02-13T00:53:52;102652.50;;;6.19;100.00
22550;BME280;11441;57.164;-2.120;2023-02-13T00:56:19;102652.22;;;6.16;100.00
22550;BME280;11441;57.164;-2.120;2023-02-13T00:58:46;102658.25;;;6.02;100.00
22550;BME280;11441;57.164;-2.120;2023-02-13T01:01:13;102645.97;;;6.05;100.00
22550;BME280;11441;57.164;-2.120;2023-02-13T01:03:41;102658.56;;;6.06;100.00
22550;BME280;11441;57.164;-2.120;2023-02-13T01:06:08;102651.97;;;6.02;100.00
22550;BME280;11441;57.164;-2.120;2023-02-13T01:08:38;102649.53;;;6.00;100.00
22550;BME280;11441;57.164;-2.120;2023-02-13T01:11:06;102644.88;;;6.01;100.00
22550;BME280;11441;57.164;-2.120;2023-02-13T01:13:34;102656.09;;;6.04;100.00
22550;BME280;11441;57.164;-2.120;2023-02-13T01:16:01;102648.44;;;6.01;100.00
22550;BME280;11441;57.164;-2.120;2023-02-13T01:18:27;102654.44;;;6.09;100.00
22550;BME280;11441;57.164;-2.120;2023-02-13T01:21:06;102646.78;;;6.00;100.00
22550;BME280;11441;57.164;-2.120;2023-02-13T01:23:36;102641.03;;;6.02;100.00
22550;BME280;11441;57.164;-2.120;2023-02-13T01:26:07;102650.06;;;5.97;100.00
22550;BME280;11441;57.164;-2.120;2023-02-13T01:28:34;102645.69;;;6.01;100.00
22550;BME280;11441;57.164;-2.120;2023-02-13T01:31:03;102641.03;;;6.02;100.00
22550;BME280;11441;57.164;-2.120;2023-02-13T01:33:30;102639.13;;;5.92;100.00
22550;BME280;11441;57.164;-2.120;2023-02-13T01:35:57;102639.94;;;5.82;100.00
22550;BME280;11441;57.164;-2.120;2023-02-13T01:38:23;102641.06;;;5.97;100.00
22550;BME280;11441;57.164;-2.120;2023-02-13T01:40:53;102645.16;;;6.04;100.00
22550;BME280;11441;57.164;-2.120;2023-02-13T01:43:23;102641.28;;;6.11;100.00
22550;BME280;11441;57.164;-2.120;2023-02-13T01:45:53;102646.47;;;6.17;100.00
22550;BME280;11441;57.164;-2.120;2023-02-13T01:48:24;102640.19;;;6.17;100.00
22550;BME280;11441;57.164;-2.120;2023-02-13T01:51:16;102646.53;;;5.97;100.00
22550;BME280;11441;57.164;-2.120;2023-02-13T01:53:58;102636.09;;;6.04;100.00
22550;BME280;11441;57.164;-2.120;2023-02-13T01:56:31;102644.56;;;6.13;100.00
22550;BME280;11441;57.164;-2.120;2023-02-13T01:59:20;102643.22;;;6.10;100.00
22550;BME280;11441;57.164;-2.120;2023-02-13T02:01:48;102649.22;;;6.12;100.00
22550;BME280;11441;57.164;-2.120;2023-02-13T02:04:20;102644.59;;;5.92;100.00
22550;BME280;11441;57.164;-2.120;2023-02-13T02:06:51;102634.50;;;5.77;100.00
22550;BME280;11441;57.164;-2.120;2023-02-13T02:09:28;102647.59;;;5.91;100.00
22550;BME280;11441;57.164;-2.120;2023-02-13T02:12:09;102647.88;;;5.89;100.00
22550;BME280;11441;57.164;-2.120;2023-02-13T02:14:40;102650.09;;;5.72;100.00
22550;BME280;11441;57.164;-2.120;2023-02-13T02:17:09;102651.72;;;5.73;100.00
22550;BME280;11441;57.164;-2.120;2023-02-13T02:28:28;102643.50;;;5.62;100.00
22550;BME280;11441;57.164;-2.120;2023-02-13T02:31:38;102648.16;;;5.57;100.00
22550;BME280;11441;57.164;-2.120;2023-02-13T02:34:34;102647.91;;;5.58;100.00
22550;BME280;11441;57.164;-2.120;2023-02-13T02:40:01;102634.50;;;5.46;100.00
22550;BME280;11441;57.164;-2.120;2023-02-13T02:45:36;102633.69;;;5.36;100.00
22550;BME280;11441;57.164;-2.120;2023-02-13T02:48:33;102635.06;;;5.43;100.00
22550;BME280;11441;57.164;-2.120;2023-02-13T02:51:31;102627.13;;;5.32;100.00
22550;BME280;11441;57.164;-2.120;2023-02-13T02:54:14;102626.00;;;5.33;100.00
22550;BME280;11441;57.164;-2.120;2023-02-13T02:57:09;102631.22;;;5.44;100.00
22550;BME280;11441;57.164;-2.120;2023-02-13T02:59:42;102639.16;;;5.46;100.00
22550;BME280;11441;57.164;-2.120;2023-02-13T03:02:29;102633.13;;;5.44;100.00
22550;BME280;11441;57.164;-2.120;2023-02-13T03:05:21;102631.22;;;5.39;100.00
22550;BME280;11441;57.164;-2.120;2023-02-13T03:08:08;102633.41;;;5.37;100.00
22550;BME280;11441;57.164;-2.120;2023-02-13T03:10:36;102622.75;;;5.36;100.00
22550;BME280;11441;57.164;-2.120;2023-02-13T03:13:38;102631.78;;;5.26;100.00
22550;BME280;11441;57.164;-2.120;2023-02-13T03:16:26;102626.84;;;5.33;100.00
22550;BME280;11441;57.164;-2.120;2023-02-13T03:19:22;102621.66;;;5.26;100.00
22550;BME280;11441;57.164;-2.120;2023-02-13T03:41:47;102612.09;;;5.39;100.00
22550;BME280;11441;57.164;-2.120;2023-02-13T03:47:13;102602.25;;;5.23;100.00
22550;BME280;11441;57.164;-2.120;2023-02-13T03:49:58;102608.28;;;5.35;100.00
22550;BME280;11441;57.164;-2.120;2023-02-13T03:52:36;102612.63;;;5.41;100.00
22550;BME280;11441;57.164;-2.120;2023-02-13T03:55:17;102614.81;;;5.34;100.00
22550;BME280;11441;57.164;-2.120;2023-02-13T03:58:08;102611.00;;;5.30;100.00
22550;BME280;11441;57.164;-2.120;2023-02-13T04:00:59;102611.53;;;5.17;100.00
22550;BME280;11441;57.164;-2.120;2023-02-13T04:03:34;102612.91;;;5.14;100.00
22550;BME280;11441;57.164;-2.120;2023-02-13T04:06:09;102612.66;;;5.21;100.00
22550;BME280;11441;57.164;-2.120;2023-02-13T04:08:56;102609.91;;;5.36;100.00
22550;BME280;11441;57.164;-2.120;2023-02-13T04:11:36;102606.88;;;5.17;100.00
22550;BME280;11441;57.164;-2.120;2023-02-13T04:14:24;102610.47;;;5.28;100.00
22550;BME280;11441;57.164;-2.120;2023-02-13T04:17:08;102608.78;;;5.17;100.00
22550;BME280;11441;57.164;-2.120;2023-02-13T04:19:37;102600.31;;;5.13;100.00
22550;BME280;11441;57.164;-2.120;2023-02-13T04:22:04;102605.25;;;5.16;100.00
22550;BME280;11441;57.164;-2.120;2023-02-13T04:24:31;102602.25;;;5.18;100.00
22550;BME280;11441;57.164;-2.120;2023-02-13T04:26:58;102596.78;;;5.18;100.00
22550;BME280;11441;57.164;-2.120;2023-02-13T04:29:25;102598.41;;;5.14;100.00
22550;BME280;11441;57.164;-2.120;2023-02-13T04:32:10;102609.06;;;5.15;100.00
22550;BME280;11441;57.164;-2.120;2023-02-13T04:34:37;102612.91;;;5.19;100.00
22550;BME280;11441;57.164;-2.120;2023-02-13T04:37:04;102602.78;;;5.09;100.00
22550;BME280;11441;57.164;-2.120;2023-02-13T04:39:31;102609.63;;;5.02;100.00
22550;BME280;11441;57.164;-2.120;2023-02-13T04:41:58;102607.16;;;5.00;100.00
22550;BME280;11441;57.164;-2.120;2023-02-13T04:44:24;102604.97;;;5.02;100.00
22550;BME280;11441;57.164;-2.120;2023-02-13T04:46:51;102608.50;;;5.08;100.00
22550;BME280;11441;57.164;-2.120;2023-02-13T04:49:37;102618.66;;;5.18;100.00
22550;BME280;11441;57.164;-2.120;2023-02-13T04:52:04;102617.25;;;5.15;100.00
22550;BME280;11441;57.164;-2.120;2023-02-13T04:54:31;102604.44;;;5.10;100.00
22550;BME280;11441;57.164;-2.120;2023-02-13T04:56:57;102604.72;;;5.24;100.00
22550;BME280;11441;57.164;-2.120;2023-02-13T04:59:24;102602.75;;;4.99;100.00
22550;BME280;11441;57.164;-2.120;2023-02-13T05:01:51;102612.63;;;5.05;100.00
22550;BME280;11441;57.164;-2.120;2023-02-13T05:04:18;102609.59;;;4.97;100.00
22550;BME280;11441;57.164;-2.120;2023-02-13T05:06:45;102604.41;;;4.95;100.00
22550;BME280;11441;57.164;-2.120;2023-02-13T05:09:12;102607.69;;;4.97;100.00
22550;BME280;11441;57.164;-2.120;2023-02-13T05:11:38;102605.19;;;4.85;100.00
22550;BME280;11441;57.164;-2.120;2023-02-13T05:14:05;102597.56;;;4.93;100.00
22550;BME280;11441;57.164;-2.120;2023-02-13T05:16:32;102584.72;;;4.83;100.00
22550;BME280;11441;57.164;-2.120;2023-02-13T05:18:59;102588.84;;;4.96;100.00
22550;BME280;11441;57.164;-2.120;2023-02-13T05:21:26;102586.38;;;4.99;100.00
22550;BME280;11441;57.164;-2.120;2023-02-13T05:24:11;102586.38;;;5.04;100.00
22550;BME280;11441;57.164;-2.120;2023-02-13T05:26:38;102594.03;;;4.92;100.00
22550;BME280;11441;57.164;-2.120;2023-02-13T05:29:05;102589.94;;;5.05;100.00
22550;BME280;11441;57.164;-2.120;2023-02-13T05:31:55;102576.81;;;4.86;100.00
22550;BME280;11441;57.164;-2.120;2023-02-13T05:34:25;102572.16;;;4.87;100.00
22550;BME280;11441;57.164;-2.120;2023-02-13T05:36:52;102575.16;;;4.80;100.00
22550;BME280;11441;57.164;-2.120;2023-02-13T05:39:19;102574.31;;;4.69;100.00
22550;BME280;11441;57.164;-2.120;2023-02-13T05:41:46;102584.47;;;4.84;100.00
22550;BME280;11441;57.164;-2.120;2023-02-13T05:44:14;102574.88;;;4.82;100.00
22550;BME280;11441;57.164;-2.120;2023-02-13T05:46:42;102573.22;;;4.65;100.00
22550;BME280;11441;57.164;-2.120;2023-02-13T05:49:12;102583.59;;;4.73;100.00
22550;BME280;11441;57.164;-2.120;2023-02-13T05:51:40;102580.88;;;4.84;100.00
22550;BME280;11441;57.164;-2.120;2023-02-13T05:54:07;102579.28;;;4.93;100.00
22550;BME280;11441;57.164;-2.120;2023-02-13T05:56:34;102582.81;;;4.83;100.00
22550;BME280;11441;57.164;-2.120;2023-02-13T05:59:01;102576.81;;;4.86;100.00
22550;BME280;11441;57.164;-2.120;2023-02-13T06:01:27;102583.91;;;4.87;100.00
22550;BME280;11441;57.164;-2.120;2023-02-13T06:03:54;102583.06;;;4.77;100.00
22550;BME280;11441;57.164;-2.120;2023-02-13T06:06:24;102585.81;;;4.92;100.00
22550;BME280;11441;57.164;-2.120;2023-02-13T06:08:51;102586.88;;;4.86;100.00
22550;BME280;11441;57.164;-2.120;2023-02-13T06:11:19;102574.31;;;4.75;100.00
22550;BME280;11441;57.164;-2.120;2023-02-13T06:13:45;102579.78;;;4.75;100.00
22550;BME280;11441;57.164;-2.120;2023-02-13T06:16:12;102580.06;;;4.73;100.00
22550;BME280;11441;57.164;-2.120;2023-02-13T06:18:39;102588.53;;;4.77;100.00
22550;BME280;11441;57.164;-2.120;2023-02-13T06:21:07;102597.53;;;4.77;100.00
22550;BME280;11441;57.164;-2.120;2023-02-13T06:23:34;102595.91;;;4.76;100.00
22550;BME280;11441;57.164;-2.120;2023-02-13T06:26:05;102578.69;;;4.70;100.00
22550;BME280;11441;57.164;-2.120;2023-02-13T06:28:33;102586.88;;;4.70;100.00
22550;BME280;11441;57.164;-2.120;2023-02-13T06:31:00;102583.03;;;4.66;100.00
22550;BME280;11441;57.164;-2.120;2023-02-13T06:33:27;102583.88;;;4.72;100.00
22550;BME280;11441;57.164;-2.120;2023-02-13T06:35:54;102585.47;;;4.58;100.00
22550;BME280;11441;57.164;-2.120;2023-02-13T06:38:40;102590.44;;;4.71;100.00
22550;BME280;11441;57.164;-2.120;2023-02-13T06:41:07;102584.13;;;4.65;100.00
22550;BME280;11441;57.164;-2.120;2023-02-13T06:43:34;102586.31;;;4.68;100.00
22550;BME280;11441;57.164;-2.120;2023-02-13T06:46:05;102590.44;;;4.71;100.00
22550;BME280;11441;57.164;-2.120;2023-02-13T06:48:31;102587.16;;;4.74;100.00
22550;BME280;11441;57.164;-2.120;2023-02-13T06:50:59;102586.00;;;4.60;100.00
22550;BME280;11441;57.164;-2.120;2023-02-13T06:53:27;102582.50;;;4.69;100.00
22550;BME280;11441;57.164;-2.120;2023-02-13T06:55:55;102591.78;;;4.73;100.00
22550;BME280;11441;57.164;-2.120;2023-02-13T06:58:24;102584.41;;;4.69;100.00
22550;BME280;11441;57.164;-2.120;2023-02-13T07:00:51;102587.94;;;4.64;100.00
22550;BME280;11441;57.164;-2.120;2023-02-13T07:03:18;102577.56;;;4.61;100.00
22550;BME280;11441;57.164;-2.120;2023-02-13T07:05:45;102571.00;;;4.57;100.00
22550;BME280;11441;57.164;-2.120;2023-02-13T07:08:31;102573.22;;;4.65;100.00
22550;BME280;11441;57.164;-2.120;2023-02-13T07:10:58;102571.56;;;4.59;100.00
22550;BME280;11441;57.164;-2.120;2023-02-13T07:13:25;102571.81;;;4.58;100.00
22550;BME280;11441;57.164;-2.120;2023-02-13T07:15:51;102568.53;;;4.50;100.00
22550;BME280;11441;57.164;-2.120;2023-02-13T07:18:18;102567.69;;;4.45;100.00
22550;BME280;11441;57.164;-2.120;2023-02-13T07:21:04;102570.66;;;4.38;100.00
22550;BME280;11441;57.164;-2.120;2023-02-13T07:23:31;102585.69;;;4.36;100.00
22550;BME280;11441;57.164;-2.120;2023-02-13T07:25:58;102577.53;;;4.41;100.00
22550;BME280;11441;57.164;-2.120;2023-02-13T07:28:27;102569.88;;;4.43;100.00
22550;BME280;11441;57.164;-2.120;2023-02-13T07:30:54;102562.47;;;4.38;100.00
22550;BME280;11441;57.164;-2.120;2023-02-13T07:33:40;102570.16;;;4.41;100.00
22550;BME280;11441;57.164;-2.120;2023-02-13T07:36:07;102570.97;;;4.42;100.00
22550;BME280;11441;57.164;-2.120;2023-02-13T07:38:34;102567.94;;;4.38;100.00
22550;BME280;11441;57.164;-2.120;2023-02-13T07:41:18;102573.91;;;4.30;100.00
22550;BME280;11441;57.164;-2.120;2023-02-13T07:43:45;102570.59;;;4.23;100.00
22550;BME280;11441;57.164;-2.120;2023-02-13T07:46:12;102574.72;;;4.25;100.00
22550;BME280;11441;57.164;-2.120;2023-02-13T07:48:39;102568.47;;;4.35;100.00
22550;BME280;11441;57.164;-2.120;2023-02-13T07:51:05;102570.34;;;4.24;100.00
22550;BME280;11441;57.164;-2.120;2023-02-13T07:53:32;102572.56;;;4.32;100.00
22550;BME280;11441;57.164;-2.120;2023-02-13T07:56:04;102580.19;;;4.25;100.00
22550;BME280;11441;57.164;-2.120;2023-02-13T07:59:09;102579.06;;;4.21;100.00
22550;BME280;11441;57.164;-2.120;2023-02-13T08:01:55;102572.28;;;4.29;100.00
22550;BME280;11441;57.164;-2.120;2023-02-13T08:04:22;102578.47;;;4.14;100.00
22550;BME280;11441;57.164;-2.120;2023-02-13T08:06:51;102575.72;;;4.09;100.00
22550;BME280;11441;57.164;-2.120;2023-02-13T08:09:19;102578.25;;;4.26;100.00
22550;BME280;11441;57.164;-2.120;2023-02-13T08:12:09;102575.75;;;4.14;100.00
22550;BME280;11441;57.164;-2.120;2023-02-13T08:15:13;102584.56;;;4.37;100.00
22550;BME280;11441;57.164;-2.120;2023-02-13T08:17:59;102579.09;;;4.31;100.00
22550;BME280;11441;57.164;-2.120;2023-02-13T08:20:26;102573.34;;;4.23;100.00
22550;BME280;11441;57.164;-2.120;2023-02-13T08:22:53;102575.56;;;4.36;100.00
22550;BME280;11441;57.164;-2.120;2023-02-13T08:25:20;102566.88;;;4.44;100.00
22550;BME280;11441;57.164;-2.120;2023-02-13T08:27:46;102577.50;;;4.46;100.00
22550;BME280;11441;57.164;-2.120;2023-02-13T08:30:13;102581.13;;;4.57;100.00
22550;BME280;11441;57.164;-2.120;2023-02-13T08:32:41;102579.44;;;4.50;100.00
22550;BME280;11441;57.164;-2.120;2023-02-13T08:35:20;102574.28;;;4.64;100.00
22550;BME280;11441;57.164;-2.120;2023-02-13T08:37:48;102575.94;;;4.60;100.00
22550;BME280;11441;57.164;-2.120;2023-02-13T08:40:15;102577.56;;;4.66;100.00
22550;BME280;11441;57.164;-2.120;2023-02-13T08:42:41;102568.53;;;4.50;100.00
22550;BME280;11441;57.164;-2.120;2023-02-13T08:45:09;102573.78;;;4.67;100.00
22550;BME280;11441;57.164;-2.120;2023-02-13T08:47:37;102567.19;;;4.68;100.00
22550;BME280;11441;57.164;-2.120;2023-02-13T08:50:06;102574.34;;;4.80;100.00
22550;BME280;11441;57.164;-2.120;2023-02-13T08:52:33;102570.22;;;4.77;100.00
22550;BME280;11441;57.164;-2.120;2023-02-13T08:55:18;102569.16;;;4.88;100.00
22550;BME280;11441;57.164;-2.120;2023-02-13T08:57:46;102573.81;;;4.93;100.00
22550;BME280;11441;57.164;-2.120;2023-02-13T09:00:13;102577.09;;;5.00;100.00
22550;BME280;11441;57.164;-2.120;2023-02-13T09:02:40;102573.53;;;5.05;100.00
22550;BME280;11441;57.164;-2.120;2023-02-13T09:05:07;102570.81;;;5.05;100.00
22550;BME280;11441;57.164;-2.120;2023-02-13T09:07:34;102575.75;;;5.18;100.00
22550;BME280;11441;57.164;-2.120;2023-02-13T09:10:01;102565.91;;;5.27;100.00
22550;BME280;11441;57.164;-2.120;2023-02-13T09:12:27;102558.28;;;5.35;100.00
22550;BME280;11441;57.164;-2.120;2023-02-13T09:14:54;102560.69;;;5.46;100.00
22550;BME280;11441;57.164;-2.120;2023-02-13T09:17:21;102559.34;;;5.34;100.00
22550;BME280;11441;57.164;-2.120;2023-02-13T09:19:48;102556.06;;;5.47;100.00
22550;BME280;11441;57.164;-2.120;2023-02-13T09:22:33;102554.16;;;5.53;100.00
22550;BME280;11441;57.164;-2.120;2023-02-13T09:24:59;102550.88;;;5.61;100.00
22550;BME280;11441;57.164;-2.120;2023-02-13T09:27:29;102547.56;;;5.48;100.00
22550;BME280;11441;57.164;-2.120;2023-02-13T09:29:56;102544.56;;;5.55;100.00
22550;BME280;11441;57.164;-2.120;2023-02-13T09:32:24;102541.56;;;5.62;100.00
22550;BME280;11441;57.164;-2.120;2023-02-13T09:34:51;102531.72;;;5.61;100.00
22550;BME280;11441;57.164;-2.120;2023-02-13T09:37:35;102536.09;;;5.62;100.00
22550;BME280;11441;57.164;-2.120;2023-02-13T09:40:02;102531.97;;;5.70;100.00
22550;BME280;11441;57.164;-2.120;2023-02-13T09:42:32;102536.63;;;5.59;100.00
22550;BME280;11441;57.164;-2.120;2023-02-13T09:45:03;102534.16;;;5.62;100.00
22550;BME280;11441;57.164;-2.120;2023-02-13T09:47:42;102542.09;;;5.64;100.00
22550;BME280;11441;57.164;-2.120;2023-02-13T09:50:14;102533.59;;;5.71;100.00
22550;BME280;11441;57.164;-2.120;2023-02-13T09:52:44;102536.34;;;5.65;100.00
22550;BME280;11441;57.164;-2.120;2023-02-13T09:55:21;102542.34;;;5.73;100.00
22550;BME280;11441;57.164;-2.120;2023-02-13T09:58:05;102533.00;;;5.94;100.00
22550;BME280;11441;57.164;-2.120;2023-02-13T10:00:39;102534.38;;;5.86;100.00
22550;BME280;11441;57.164;-2.120;2023-02-13T10:03:21;102531.34;;;6.03;100.00
22550;BME280;11441;57.164;-2.120;2023-02-13T10:14:39;102514.91;;;6.09;100.00
22550;BME280;11441;57.164;-2.120;2023-02-13T10:17:16;102527.19;;;6.11;100.00
22550;BME280;11441;57.164;-2.120;2023-02-13T10:19:53;102510.78;;;6.11;100.00
22550;BME280;11441;57.164;-2.120;2023-02-13T10:22:52;102516.50;;;6.20;100.00
22550;BME280;11441;57.164;-2.120;2023-02-13T10:25:45;102512.97;;;6.14;100.00
22550;BME280;11441;57.164;-2.120;2023-02-13T10:28:41;102522.78;;;6.26;100.00
22550;BME280;11441;57.164;-2.120;2023-02-13T10:31:10;102512.72;;;6.11;100.00
22550;BME280;11441;57.164;-2.120;2023-02-13T10:33:57;102519.84;;;6.12;100.00
22550;BME280;11441;57.164;-2.120;2023-02-13T10:36:30;102514.22;;;6.37;100.00
22550;BME280;11441;57.164;-2.120;2023-02-13T10:44:23;102499.53;;;6.18;100.00
22550;BME280;11441;57.164;-2.120;2023-02-13T10:47:14;102508.56;;;6.23;100.00
22550;BME280;11441;57.164;-2.120;2023-02-13T11:03:26;102516.28;;;6.61;100.00
22550;BME280;11441;57.164;-2.120;2023-02-13T11:05:54;102510.03;;;6.55;100.00
22550;BME280;11441;57.164;-2.120;2023-02-13T11:08:29;102511.34;;;6.58;100.00
22550;BME280;11441;57.164;-2.120;2023-02-13T11:10:57;102508.13;;;6.51;100.00
22550;BME280;11441;57.164;-2.120;2023-02-13T11:13:27;102489.38;;;6.68;100.00
22550;BME280;11441;57.164;-2.120;2023-02-13T11:15:58;102493.47;;;6.76;100.00
22550;BME280;11441;57.164;-2.120;2023-02-13T11:18:28;102494.03;;;6.73;100.00
22550;BME280;11441;57.164;-2.120;2023-02-13T11:21:04;102494.59;;;6.70;100.00
22550;BME280;11441;57.164;-2.120;2023-02-13T11:26:15;102478.13;;;6.75;100.00
22550;BME280;11441;57.164;-2.120;2023-02-13T11:28:50;102473.13;;;6.82;100.00
22550;BME280;11441;57.164;-2.120;2023-02-13T11:33:52;102471.47;;;6.86;100.00
22550;BME280;11441;57.164;-2.120;2023-02-13T11:36:28;102465.50;;;6.74;100.00
22550;BME280;11441;57.164;-2.120;2023-02-13T11:39:03;102454.75;;;6.83;100.00
22550;BME280;11441;57.164;-2.120;2023-02-13T11:41:38;102447.72;;;6.76;100.00
22550;BME280;11441;57.164;-2.120;2023-02-13T11:44:14;102461.88;;;6.84;100.00
22550;BME280;11441;57.164;-2.120;2023-02-13T11:46:46;102464.41;;;6.75;100.00
22550;BME280;11441;57.164;-2.120;2023-02-13T11:49:19;102461.97;;;6.73;100.00
22550;BME280;11441;57.164;-2.120;2023-02-13T11:51:51;102456.03;;;6.95;100.00
22550;BME280;11441;57.164;-2.120;2023-02-13T11:56:58;102447.81;;;6.95;100.00
22550;BME280;11441;57.164;-2.120;2023-02-13T11:59:39;102439.31;;;6.97;100.00
22550;BME280;11441;57.164;-2.120;2023-02-13T12:02:29;102437.97;;;6.94;100.00
22550;BME280;11441;57.164;-2.120;2023-02-13T12:07:43;102446.03;;;7.10;100.00
22550;BME280;11441;57.164;-2.120;2023-02-13T12:12:44;102443.00;;;7.11;100.00
22550;BME280;11441;57.164;-2.120;2023-02-13T12:15:24;102440.50;;;7.15;100.00
22550;BME280;11441;57.164;-2.120;2023-02-13T12:20:52;102433.88;;;7.21;100.00
22550;BME280;11441;57.164;-2.120;2023-02-13T12:23:58;102432.13;;;7.30;100.00
22550;BME280;11441;57.164;-2.120;2023-02-13T12:34:22;102420.50;;;7.44;100.00
22550;BME280;11441;57.164;-2.120;2023-02-13T12:39:40;102406.00;;;7.62;100.00
22550;BME280;11441;57.164;-2.120;2023-02-13T12:43:15;102413.34;;;7.67;100.00
22550;BME280;11441;57.164;-2.120;2023-02-13T12:45:45;102409.47;;;7.68;100.00
22550;BME280;11441;57.164;-2.120;2023-02-13T12:48:52;102403.59;;;7.99;100.00
22550;BME280;11441;57.164;-2.120;2023-02-13T12:52:45;102397.00;;;7.81;100.00
22550;BME280;11441;57.164;-2.120;2023-02-13T13:22:41;102398.56;;;8.06;100.00
22550;BME280;11441;57.164;-2.120;2023-02-13T13:25:43;102391.59;;;8.14;100.00
22550;BME280;11441;57.164;-2.120;2023-02-13T13:28:17;102386.63;;;7.97;100.00
22550;BME280;11441;57.164;-2.120;2023-02-13T13:30:46;102387.50;;;7.92;100.00
22550;BME280;11441;57.164;-2.120;2023-02-13T13:33:22;102389.06;;;7.98;100.00
22550;BME280;11441;57.164;-2.120;2023-02-13T13:52:28;102362.72;;;7.97;100.00
22550;BME280;11441;57.164;-2.120;2023-02-13T13:54:57;102357.53;;;8.15;100.00
22550;BME280;11441;57.164;-2.120;2023-02-13T14:00:25;102343.28;;;8.12;100.00
22550;BME280;11441;57.164;-2.120;2023-02-13T14:03:20;102351.03;;;8.10;100.00
22550;BME280;11441;57.164;-2.120;2023-02-13T14:06:00;102343.81;;;8.15;100.00
22550;BME280;11441;57.164;-2.120;2023-02-13T14:13:53;102331.72;;;8.16;100.00
22550;BME280;11441;57.164;-2.120;2023-02-13T14:16:43;102338.91;;;8.11;100.00
22550;BME280;11441;57.164;-2.120;2023-02-13T14:19:39;102341.34;;;8.13;100.00
22550;BME280;11441;57.164;-2.120;2023-02-13T14:24:53;102340.09;;;8.24;100.00
22550;BME280;11441;57.164;-2.120;2023-02-13T14:27:38;102348.78;;;8.12;100.00
22550;BME280;11441;57.164;-2.120;2023-02-13T14:30:21;102346.41;;;8.25;100.00
22550;BME280;11441;57.164;-2.120;2023-02-13T14:32:51;102324.44;;;8.25;100.00
22550;BME280;11441;57.164;-2.120;2023-02-13T14:35:29;102337.06;;;8.26;100.00
22550;BME280;11441;57.164;-2.120;2023-02-13T14:37:59;102327.09;;;8.30;100.00
22550;BME280;11441;57.164;-2.120;2023-02-13T14:45:53;102330.28;;;8.37;100.00
22550;BME280;11441;57.164;-2.120;2023-02-13T14:48:28;102323.47;;;8.35;100.00
22550;BME280;11441;57.164;-2.120;2023-02-13T14:50:58;102328.31;;;8.24;100.00
22550;BME280;11441;57.164;-2.120;2023-02-13T14:53:30;102322.38;;;8.17;100.00
22550;BME280;11441;57.164;-2.120;2023-02-13T14:56:07;102318.66;;;8.26;100.00
22550;BME280;11441;57.164;-2.120;2023-02-13T14:59:11;102323.41;;;8.21;100.00
22550;BME280;11441;57.164;-2.120;2023-02-13T15:01:47;102318.44;;;8.23;100.00
22550;BME280;11441;57.164;-2.120;2023-02-13T15:04:34;102321.78;;;8.20;100.00
22550;BME280;11441;57.164;-2.120;2023-02-13T15:07:06;102317.53;;;8.27;100.00
22550;BME280;11441;57.164;-2.120;2023-02-13T15:09:40;102322.81;;;8.24;100.00
22550;BME280;11441;57.164;-2.120;2023-02-13T15:12:34;102305.81;;;8.22;100.00
22550;BME280;11441;57.164;-2.120;2023-02-13T15:15:21;102324.22;;;8.21;100.00
22550;BME280;11441;57.164;-2.120;2023-02-13T15:17:48;102327.56;;;8.18;100.00
22550;BME280;11441;57.164;-2.120;2023-02-13T15:20:22;102326.66;;;8.23;100.00
22550;BME280;11441;57.164;-2.120;2023-02-13T15:22:51;102316.13;;;8.30;100.00
22550;BME280;11441;57.164;-2.120;2023-02-13T15:25:37;102318.66;;;8.26;100.00
22550;BME280;11441;57.164;-2.120;2023-02-13T15:28:17;102328.47;;;8.14;100.00
22550;BME280;11441;57.164;-2.120;2023-02-13T15:30:57;102326.66;;;8.23;100.00
22550;BME280;11441;57.164;-2.120;2023-02-13T15:34:00;102321.84;;;8.15;100.00
22550;BME280;11441;57.164;-2.120;2023-02-13T15:36:22;102321.41;;;8.07;100.00
22550;BME280;11441;57.164;-2.120;2023-02-13T15:39:03;102324.31;;;8.16;100.00
22550;BME280;11441;57.164;-2.120;2023-02-13T15:41:48;102318.50;;;8.18;100.00
22550;BME280;11441;57.164;-2.120;2023-02-13T15:44:19;102313.31;;;8.16;100.00
22550;BME280;11441;57.164;-2.120;2023-02-13T15:46:48;102316.22;;;8.06;100.00
22550;BME280;11441;57.164;-2.120;2023-02-13T15:49:20;102318.88;;;8.11;100.00